sensor_id;sensor_type;location;lat;lon;timestamp;P1;P2;P0
75960;PMS7003;64644;48.914;2.254;2023-05-20T00:00:40;22.00;18.00;10.00
75960;PMS7003;64644;48.914;2.254;2023-05-20T00:03:06;20.00;17.25;11.75
75960;PMS7003;64644;48.914;2.254;2023-05-20T00:05:31;15.75;15.00;8.50
75960;PMS7003;64644;48.914;2.254;2023-05-20T00:07:56;18.25;16.00;10.00
75960;PMS7003;64644;48.914;2.254;2023-05-20T00:10:22;15.00;13.00;8.75
75960;PMS7003;64644;48.914;2.254;2023-05-20T00:12:47;15.00;13.00;9.00
75960;PMS7003;64644;48.914;2.254;2023-05-20T00:15:12;17.75;15.50;9.25
75960;PMS7003;64644;48.914;2.254;2023-05-20T00:17:38;14.00;12.25;9.00
75960;PMS7003;64644;48.914;2.254;2023-05-20T00:20:04;16.25;15.00;9.75
75960;PMS7003;64644;48.914;2.254;2023-05-20T00:22:30;13.50;11.75;9.00
75960;PMS7003;64644;48.914;2.254;2023-05-20T00:24:56;19.50;15.00;9.50
75960;PMS7003;64644;48.914;2.254;2023-05-20T00:27:21;12.00;12.00;9.00
75960;PMS7003;64644;48.914;2.254;2023-05-20T00:29:46;15.50;15.50;9.50
75960;PMS7003;64644;48.914;2.254;2023-05-20T00:32:12;15.00;14.00;9.50
75960;PMS7003;64644;48.914;2.254;2023-05-20T00:34:38;9.75;9.50;7.00
75960;PMS7003;64644;48.914;2.254;2023-05-20T00:37:03;16.50;16.00;9.50
75960;PMS7003;64644;48.914;2.254;2023-05-20T00:39:29;15.00;13.75;9.25
75960;PMS7003;64644;48.914;2.254;2023-05-20T00:41:54;14.50;13.50;8.00
75960;PMS7003;64644;48.914;2.254;2023-05-20T00:44:20;14.25;12.00;8.00
75960;PMS7003;64644;48.914;2.254;2023-05-20T00:46:48;14.50;12.00;9.00
75960;PMS7003;64644;48.914;2.254;2023-05-20T00:49:14;14.00;12.50;8.00
75960;PMS7003;64644;48.914;2.254;2023-05-20T00:51:40;12.25;11.25;9.00
75960;PMS7003;64644;48.914;2.254;2023-05-20T00:54:05;14.75;11.75;8.75
75960;PMS7003;64644;48.914;2.254;2023-05-20T00:56:31;12.25;12.25;9.25
75960;PMS7003;64644;48.914;2.254;2023-05-20T00:58:56;14.25;13.25;9.00
75960;PMS7003;64644;48.914;2.254;2023-05-20T01:01:22;11.50;11.00;8.00
75960;PMS7003;64644;48.914;2.254;2023-05-20T01:03:47;9.75;9.50;7.00
75960;PMS7003;64644;48.914;2.254;2023-05-20T01:06:12;11.00;11.00;8.00
75960;PMS7003;64644;48.914;2.254;2023-05-20T01:08:38;11.75;11.75;8.00
75960;PMS7003;64644;48.914;2.254;2023-05-20T01:11:07;14.50;14.25;9.75
75960;PMS7003;64644;48.914;2.254;2023-05-20T01:13:46;15.00;12.00;8.00
75960;PMS7003;64644;48.914;2.254;2023-05-20T01:16:16;13.25;11.00;7.00
75960;PMS7003;64644;48.914;2.254;2023-05-20T01:18:43;16.25;12.75;9.00
75960;PMS7003;64644;48.914;2.254;2023-05-20T01:21:12;15.00;13.75;9.00
75960;PMS7003;64644;48.914;2.254;2023-05-20T01:23:40;12.75;12.75;8.50
75960;PMS7003;64644;48.914;2.254;2023-05-20T01:26:05;10.50;10.00;8.00
75960;PMS7003;64644;48.914;2.254;2023-05-20T01:28:32;14.75;11.25;6.50
75960;PMS7003;64644;48.914;2.254;2023-05-20T01:30:59;11.50;10.00;8.00
75960;PMS7003;64644;48.914;2.254;2023-05-20T01:33:27;13.25;11.00;8.00
75960;PMS7003;64644;48.914;2.254;2023-05-20T01:35:53;14.75;12.25;8.50
75960;PMS7003;64644;48.914;2.254;2023-05-20T01:38:20;17.00;13.75;8.00
75960;PMS7003;64644;48.914;2.254;2023-05-20T01:40:48;11.00;10.00;7.75
75960;PMS7003;64644;48.914;2.254;2023-05-20T01:43:14;10.25;10.25;8.25
75960;PMS7003;64644;48.914;2.254;2023-05-20T01:45:41;13.50;13.50;9.25
75960;PMS7003;64644;48.914;2.254;2023-05-20T01:48:08;17.50;13.00;9.75
75960;PMS7003;64644;48.914;2.254;2023-05-20T01:50:35;14.25;14.25;9.00
75960;PMS7003;64644;48.914;2.254;2023-05-20T01:53:01;15.25;13.75;9.25
75960;PMS7003;64644;48.914;2.254;2023-05-20T01:55:27;12.75;12.75;9.00
75960;PMS7003;64644;48.914;2.254;2023-05-20T01:57:52;18.00;11.75;8.25
75960;PMS7003;64644;48.914;2.254;2023-05-20T02:00:17;18.00;15.25;9.50
75960;PMS7003;64644;48.914;2.254;2023-05-20T02:02:43;15.00;13.75;9.75
75960;PMS7003;64644;48.914;2.254;2023-05-20T02:05:08;10.50;10.00;7.25
75960;PMS7003;64644;48.914;2.254;2023-05-20T02:07:34;13.00;10.75;8.00
75960;PMS7003;64644;48.914;2.254;2023-05-20T02:09:59;13.00;12.00;8.00
75960;PMS7003;64644;48.914;2.254;2023-05-20T02:12:26;15.75;15.00;10.00
75960;PMS7003;64644;48.914;2.254;2023-05-20T02:14:51;13.50;11.75;8.00
75960;PMS7003;64644;48.914;2.254;2023-05-20T02:17:16;15.25;15.25;9.25
75960;PMS7003;64644;48.914;2.254;2023-05-20T02:19:42;15.00;13.00;9.25
75960;PMS7003;64644;48.914;2.254;2023-05-20T02:22:09;12.50;12.00;8.00
75960;PMS7003;64644;48.914;2.254;2023-05-20T02:24:34;15.00;13.75;9.00
75960;PMS7003;64644;48.914;2.254;2023-05-20T02:27:00;14.75;14.00;8.00
75960;PMS7003;64644;48.914;2.254;2023-05-20T02:29:27;12.75;10.50;8.25
75960;PMS7003;64644;48.914;2.254;2023-05-20T02:31:52;13.25;13.00;9.25
75960;PMS7003;64644;48.914;2.254;2023-05-20T02:34:18;16.50;14.75;9.50
75960;PMS7003;64644;48.914;2.254;2023-05-20T02:36:44;20.75;18.75;12.50
75960;PMS7003;64644;48.914;2.254;2023-05-20T02:39:11;18.25;17.50;9.50
75960;PMS7003;64644;48.914;2.254;2023-05-20T02:41:37;16.75;13.25;8.50
75960;PMS7003;64644;48.914;2.254;2023-05-20T02:44:02;17.00;15.50;9.75
75960;PMS7003;64644;48.914;2.254;2023-05-20T02:46:28;16.25;14.50;9.25
75960;PMS7003;64644;48.914;2.254;2023-05-20T02:48:53;13.00;12.25;7.75
75960;PMS7003;64644;48.914;2.254;2023-05-20T02:51:18;16.00;16.00;12.00
75960;PMS7003;64644;48.914;2.254;2023-05-20T02:53:44;15.25;13.00;9.50
75960;PMS7003;64644;48.914;2.254;2023-05-20T02:56:10;18.50;14.75;9.75
75960;PMS7003;64644;48.914;2.254;2023-05-20T02:58:35;17.00;14.75;11.00
75960;PMS7003;64644;48.914;2.254;2023-05-20T03:01:01;16.25;14.75;10.00
75960;PMS7003;64644;48.914;2.254;2023-05-20T03:03:27;19.00;15.25;10.00
75960;PMS7003;64644;48.914;2.254;2023-05-20T03:05:52;18.50;15.75;11.00
75960;PMS7003;64644;48.914;2.254;2023-05-20T03:08:19;18.75;18.00;10.00
75960;PMS7003;64644;48.914;2.254;2023-05-20T03:10:46;16.25;14.00;9.00
75960;PMS7003;64644;48.914;2.254;2023-05-20T03:13:12;16.25;14.25;10.50
75960;PMS7003;64644;48.914;2.254;2023-05-20T03:15:39;19.50;18.75;10.00
75960;PMS7003;64644;48.914;2.254;2023-05-20T03:18:05;20.25;19.00;11.00
75960;PMS7003;64644;48.914;2.254;2023-05-20T03:20:32;17.50;17.00;12.00
75960;PMS7003;64644;48.914;2.254;2023-05-20T03:23:00;24.25;19.75;12.75
75960;PMS7003;64644;48.914;2.254;2023-05-20T03:25:26;15.25;14.00;9.00
75960;PMS7003;64644;48.914;2.254;2023-05-20T03:27:52;15.50;14.00;10.75
75960;PMS7003;64644;48.914;2.254;2023-05-20T03:30:17;15.25;14.75;10.25
75960;PMS7003;64644;48.914;2.254;2023-05-20T03:32:42;16.25;16.25;10.00
75960;PMS7003;64644;48.914;2.254;2023-05-20T03:35:08;20.25;19.00;12.50
75960;PMS7003;64644;48.914;2.254;2023-05-20T03:37:34;20.00;17.25;11.00
75960;PMS7003;64644;48.914;2.254;2023-05-20T03:39:59;26.50;21.25;14.00
75960;PMS7003;64644;48.914;2.254;2023-05-20T03:42:25;15.00;14.00;11.50
75960;PMS7003;64644;48.914;2.254;2023-05-20T03:44:50;19.25;18.00;12.00
75960;PMS7003;64644;48.914;2.254;2023-05-20T03:47:15;20.25;17.25;12.50
75960;PMS7003;64644;48.914;2.254;2023-05-20T03:49:41;20.25;17.25;12.00
75960;PMS7003;64644;48.914;2.254;2023-05-20T03:52:06;23.50;19.75;13.00
75960;PMS7003;64644;48.914;2.254;2023-05-20T03:54:32;23.25;17.00;9.50
75960;PMS7003;64644;48.914;2.254;2023-05-20T03:56:59;21.25;17.25;13.25
75960;PMS7003;64644;48.914;2.254;2023-05-20T03:59:26;11.75;10.50;10.00
75960;PMS7003;64644;48.914;2.254;2023-05-20T04:01:52;20.25;19.25;13.25
75960;PMS7003;64644;48.914;2.254;2023-05-20T04:04:17;24.00;19.00;12.25
75960;PMS7003;64644;48.914;2.254;2023-05-20T04:06:43;17.50;17.50;11.00
75960;PMS7003;64644;48.914;2.254;2023-05-20T04:09:09;17.00;16.50;12.25
75960;PMS7003;64644;48.914;2.254;2023-05-20T04:11:35;25.50;18.00;12.25
75960;PMS7003;64644;48.914;2.254;2023-05-20T04:14:00;21.00;20.50;12.00
75960;PMS7003;64644;48.914;2.254;2023-05-20T04:16:26;22.75;18.75;13.00
75960;PMS7003;64644;48.914;2.254;2023-05-20T04:18:51;22.75;20.25;13.00
75960;PMS7003;64644;48.914;2.254;2023-05-20T04:21:17;19.75;19.50;11.50
75960;PMS7003;64644;48.914;2.254;2023-05-20T04:23:45;23.00;20.75;14.25
75960;PMS7003;64644;48.914;2.254;2023-05-20T04:26:11;20.25;17.00;13.00
75960;PMS7003;64644;48.914;2.254;2023-05-20T04:28:36;23.25;19.50;13.00
75960;PMS7003;64644;48.914;2.254;2023-05-20T04:31:02;20.25;19.00;10.50
75960;PMS7003;64644;48.914;2.254;2023-05-20T04:33:28;21.75;19.25;14.00
75960;PMS7003;64644;48.914;2.254;2023-05-20T04:35:54;28.25;24.50;14.75
75960;PMS7003;64644;48.914;2.254;2023-05-20T04:38:22;19.50;17.75;12.50
75960;PMS7003;64644;48.914;2.254;2023-05-20T04:40:53;25.25;23.75;14.00
75960;PMS7003;64644;48.914;2.254;2023-05-20T04:43:21;21.50;20.25;13.00
75960;PMS7003;64644;48.914;2.254;2023-05-20T04:45:47;26.50;21.75;13.75
75960;PMS7003;64644;48.914;2.254;2023-05-20T04:48:13;27.25;23.25;13.25
75960;PMS7003;64644;48.914;2.254;2023-05-20T04:50:38;22.75;19.50;12.00
75960;PMS7003;64644;48.914;2.254;2023-05-20T04:53:05;20.50;18.50;13.00
75960;PMS7003;64644;48.914;2.254;2023-05-20T04:55:31;21.00;19.00;13.00
75960;PMS7003;64644;48.914;2.254;2023-05-20T04:57:57;21.00;18.75;13.00
75960;PMS7003;64644;48.914;2.254;2023-05-20T05:00:22;20.50;20.00;11.25
75960;PMS7003;64644;48.914;2.254;2023-05-20T05:02:47;19.25;18.25;14.25
75960;PMS7003;64644;48.914;2.254;2023-05-20T05:05:13;21.25;19.00;12.00
75960;PMS7003;64644;48.914;2.254;2023-05-20T05:07:38;26.50;24.25;16.50
75960;PMS7003;64644;48.914;2.254;2023-05-20T05:10:04;25.00;21.00;13.75
75960;PMS7003;64644;48.914;2.254;2023-05-20T05:12:30;21.50;19.75;14.00
75960;PMS7003;64644;48.914;2.254;2023-05-20T05:14:56;22.25;20.75;14.50
75960;PMS7003;64644;48.914;2.254;2023-05-20T05:17:22;21.00;20.00;13.00
75960;PMS7003;64644;48.914;2.254;2023-05-20T05:19:48;31.00;24.50;14.75
75960;PMS7003;64644;48.914;2.254;2023-05-20T05:22:13;23.00;19.50;13.50
75960;PMS7003;64644;48.914;2.254;2023-05-20T05:24:38;24.25;20.00;14.25
75960;PMS7003;64644;48.914;2.254;2023-05-20T05:27:04;24.00;22.75;13.75
75960;PMS7003;64644;48.914;2.254;2023-05-20T05:29:29;28.00;22.00;14.25
75960;PMS7003;64644;48.914;2.254;2023-05-20T05:31:55;23.25;20.25;13.00
75960;PMS7003;64644;48.914;2.254;2023-05-20T05:34:20;25.75;23.75;14.25
75960;PMS7003;64644;48.914;2.254;2023-05-20T05:36:45;23.50;19.50;13.00
75960;PMS7003;64644;48.914;2.254;2023-05-20T05:39:11;26.75;22.50;14.00
75960;PMS7003;64644;48.914;2.254;2023-05-20T05:41:36;26.75;23.50;14.75
75960;PMS7003;64644;48.914;2.254;2023-05-20T05:44:03;18.75;18.75;13.50
75960;PMS7003;64644;48.914;2.254;2023-05-20T05:46:28;23.75;21.75;14.75
75960;PMS7003;64644;48.914;2.254;2023-05-20T05:48:54;28.25;25.00;15.00
75960;PMS7003;64644;48.914;2.254;2023-05-20T05:51:19;22.25;20.25;13.50
75960;PMS7003;64644;48.914;2.254;2023-05-20T05:53:44;24.75;19.00;14.25
75960;PMS7003;64644;48.914;2.254;2023-05-20T05:56:10;22.50;20.25;12.75
75960;PMS7003;64644;48.914;2.254;2023-05-20T05:58:35;20.50;20.25;15.00
75960;PMS7003;64644;48.914;2.254;2023-05-20T06:01:01;25.75;20.75;14.00
75960;PMS7003;64644;48.914;2.254;2023-05-20T06:03:27;29.25;25.50;16.00
75960;PMS7003;64644;48.914;2.254;2023-05-20T06:05:53;8.25;5.25;0.00
75960;PMS7003;64644;48.914;2.254;2023-05-20T06:08:19;24.75;22.00;14.75
75960;PMS7003;64644;48.914;2.254;2023-05-20T06:10:48;22.50;19.25;14.75
75960;PMS7003;64644;48.914;2.254;2023-05-20T06:13:14;23.75;20.50;14.50
75960;PMS7003;64644;48.914;2.254;2023-05-20T06:15:40;22.75;17.25;13.75
75960;PMS7003;64644;48.914;2.254;2023-05-20T06:18:05;29.75;26.00;13.75
75960;PMS7003;64644;48.914;2.254;2023-05-20T06:20:31;23.00;21.25;17.75
75960;PMS7003;64644;48.914;2.254;2023-05-20T06:22:56;20.50;18.50;12.75
75960;PMS7003;64644;48.914;2.254;2023-05-20T06:25:22;25.00;21.50;14.50
75960;PMS7003;64644;48.914;2.254;2023-05-20T06:27:47;19.75;18.75;13.75
75960;PMS7003;64644;48.914;2.254;2023-05-20T06:30:13;25.25;22.25;15.00
75960;PMS7003;64644;48.914;2.254;2023-05-20T06:32:38;27.50;25.00;16.50
75960;PMS7003;64644;48.914;2.254;2023-05-20T06:35:04;22.00;19.00;14.00
75960;PMS7003;64644;48.914;2.254;2023-05-20T06:37:29;24.75;20.25;13.75
75960;PMS7003;64644;48.914;2.254;2023-05-20T06:39:55;20.50;19.25;12.75
75960;PMS7003;64644;48.914;2.254;2023-05-20T06:42:20;23.75;20.75;15.00
75960;PMS7003;64644;48.914;2.254;2023-05-20T06:44:46;24.75;24.50;14.25
75960;PMS7003;64644;48.914;2.254;2023-05-20T06:47:13;22.50;20.00;15.00
75960;PMS7003;64644;48.914;2.254;2023-05-20T06:49:39;32.75;27.50;15.50
75960;PMS7003;64644;48.914;2.254;2023-05-20T06:52:05;25.00;25.00;15.25
75960;PMS7003;64644;48.914;2.254;2023-05-20T06:54:31;22.75;20.25;13.75
75960;PMS7003;64644;48.914;2.254;2023-05-20T06:56:58;26.25;23.00;15.25
75960;PMS7003;64644;48.914;2.254;2023-05-20T06:59:23;19.50;19.25;15.00
75960;PMS7003;64644;48.914;2.254;2023-05-20T07:01:49;24.25;21.50;16.50
75960;PMS7003;64644;48.914;2.254;2023-05-20T07:04:14;26.00;25.00;16.00
75960;PMS7003;64644;48.914;2.254;2023-05-20T07:06:40;23.75;22.75;16.00
75960;PMS7003;64644;48.914;2.254;2023-05-20T07:09:05;25.25;23.50;16.50
75960;PMS7003;64644;48.914;2.254;2023-05-20T07:11:31;22.75;20.25;13.00
75960;PMS7003;64644;48.914;2.254;2023-05-20T07:13:56;21.00;18.75;14.50
75960;PMS7003;64644;48.914;2.254;2023-05-20T07:16:21;21.75;20.00;13.00
75960;PMS7003;64644;48.914;2.254;2023-05-20T07:18:47;24.00;21.50;15.00
75960;PMS7003;64644;48.914;2.254;2023-05-20T07:21:12;26.00;24.00;15.00
75960;PMS7003;64644;48.914;2.254;2023-05-20T07:23:37;26.75;24.25;15.75
75960;PMS7003;64644;48.914;2.254;2023-05-20T07:26:03;29.00;24.75;15.75
75960;PMS7003;64644;48.914;2.254;2023-05-20T07:28:28;22.25;21.25;15.75
75960;PMS7003;64644;48.914;2.254;2023-05-20T07:30:53;22.75;22.75;15.00
75960;PMS7003;64644;48.914;2.254;2023-05-20T07:33:21;23.00;21.50;14.75
75960;PMS7003;64644;48.914;2.254;2023-05-20T07:35:46;25.25;20.25;14.75
75960;PMS7003;64644;48.914;2.254;2023-05-20T07:38:11;26.50;22.75;15.50
75960;PMS7003;64644;48.914;2.254;2023-05-20T07:40:38;24.00;23.25;15.00
75960;PMS7003;64644;48.914;2.254;2023-05-20T07:43:05;21.75;21.00;14.50
75960;PMS7003;64644;48.914;2.254;2023-05-20T07:45:31;24.75;22.75;16.00
75960;PMS7003;64644;48.914;2.254;2023-05-20T07:48:00;21.00;20.75;16.00
75960;PMS7003;64644;48.914;2.254;2023-05-20T07:50:25;20.75;17.00;10.75
75960;PMS7003;64644;48.914;2.254;2023-05-20T07:52:50;21.75;19.50;11.75
75960;PMS7003;64644;48.914;2.254;2023-05-20T07:55:16;20.25;18.00;14.00
75960;PMS7003;64644;48.914;2.254;2023-05-20T07:57:42;23.25;19.50;16.00
75960;PMS7003;64644;48.914;2.254;2023-05-20T08:00:08;23.00;21.75;15.75
75960;PMS7003;64644;48.914;2.254;2023-05-20T08:02:33;21.00;20.25;13.25
75960;PMS7003;64644;48.914;2.254;2023-05-20T08:04:59;18.00;18.00;13.25
75960;PMS7003;64644;48.914;2.254;2023-05-20T08:07:24;21.25;20.75;12.75
75960;PMS7003;64644;48.914;2.254;2023-05-20T08:09:50;26.00;21.00;15.00
75960;PMS7003;64644;48.914;2.254;2023-05-20T08:12:15;20.25;19.50;14.00
75960;PMS7003;64644;48.914;2.254;2023-05-20T08:14:40;22.00;18.50;12.00
75960;PMS7003;64644;48.914;2.254;2023-05-20T08:17:07;20.00;17.75;13.00
75960;PMS7003;64644;48.914;2.254;2023-05-20T08:19:32;24.50;20.75;14.75
75960;PMS7003;64644;48.914;2.254;2023-05-20T08:21:58;18.75;17.50;13.00
75960;PMS7003;64644;48.914;2.254;2023-05-20T08:24:23;20.50;20.50;13.50
75960;PMS7003;64644;48.914;2.254;2023-05-20T08:26:48;17.25;17.00;13.00
75960;PMS7003;64644;48.914;2.254;2023-05-20T08:29:14;16.00;15.75;11.75
75960;PMS7003;64644;48.914;2.254;2023-05-20T08:31:39;16.50;15.25;11.00
75960;PMS7003;64644;48.914;2.254;2023-05-20T08:34:04;18.00;17.50;12.00
75960;PMS7003;64644;48.914;2.254;2023-05-20T08:36:30;12.25;12.25;11.00
75960;PMS7003;64644;48.914;2.254;2023-05-20T08:38:56;20.00;17.75;12.25
75960;PMS7003;64644;48.914;2.254;2023-05-20T08:41:21;16.75;16.75;11.00
75960;PMS7003;64644;48.914;2.254;2023-05-20T08:43:47;21.75;20.00;13.25
75960;PMS7003;64644;48.914;2.254;2023-05-20T08:46:13;19.75;18.25;14.25
75960;PMS7003;64644;48.914;2.254;2023-05-20T08:48:39;17.75;17.50;12.25
75960;PMS7003;64644;48.914;2.254;2023-05-20T08:51:05;15.25;13.50;11.25
75960;PMS7003;64644;48.914;2.254;2023-05-20T08:53:33;15.50;13.00;11.00
75960;PMS7003;64644;48.914;2.254;2023-05-20T08:55:59;15.25;15.25;11.00
75960;PMS7003;64644;48.914;2.254;2023-05-20T08:58:29;14.50;14.25;12.00
75960;PMS7003;64644;48.914;2.254;2023-05-20T09:00:54;12.25;11.75;7.25
75960;PMS7003;64644;48.914;2.254;2023-05-20T09:03:20;17.00;14.75;9.75
75960;PMS7003;64644;48.914;2.254;2023-05-20T09:05:48;15.00;14.00;10.50
75960;PMS7003;64644;48.914;2.254;2023-05-20T09:08:13;16.75;14.75;11.00
75960;PMS7003;64644;48.914;2.254;2023-05-20T09:10:39;14.25;12.00;9.00
75960;PMS7003;64644;48.914;2.254;2023-05-20T09:13:05;12.00;11.25;8.50
75960;PMS7003;64644;48.914;2.254;2023-05-20T09:15:35;14.75;12.00;7.00
75960;PMS7003;64644;48.914;2.254;2023-05-20T09:18:02;10.25;10.25;7.00
75960;PMS7003;64644;48.914;2.254;2023-05-20T09:20:31;11.75;11.00;7.00
75960;PMS7003;64644;48.914;2.254;2023-05-20T09:23:01;10.00;10.00;6.25
75960;PMS7003;64644;48.914;2.254;2023-05-20T09:25:28;12.75;11.75;7.50
75960;PMS7003;64644;48.914;2.254;2023-05-20T09:27:53;12.00;12.00;7.00
75960;PMS7003;64644;48.914;2.254;2023-05-20T09:30:19;9.00;9.00;8.25
75960;PMS7003;64644;48.914;2.254;2023-05-20T09:32:55;12.25;12.00;9.00
75960;PMS7003;64644;48.914;2.254;2023-05-20T09:35:27;10.75;8.25;6.75
75960;PMS7003;64644;48.914;2.254;2023-05-20T09:37:54;12.25;11.50;7.00
75960;PMS7003;64644;48.914;2.254;2023-05-20T09:40:25;12.00;11.00;7.00
75960;PMS7003;64644;48.914;2.254;2023-05-20T09:45:19;8.75;8.50;7.00
75960;PMS7003;64644;48.914;2.254;2023-05-20T09:47:46;9.25;8.50;7.00
75960;PMS7003;64644;48.914;2.254;2023-05-20T09:50:12;9.25;8.50;6.00
75960;PMS7003;64644;48.914;2.254;2023-05-20T09:52:40;9.00;9.00;7.25
75960;PMS7003;64644;48.914;2.254;2023-05-20T09:55:08;13.00;9.00;7.00
75960;PMS7003;64644;48.914;2.254;2023-05-20T09:57:37;9.25;9.25;7.25
75960;PMS7003;64644;48.914;2.254;2023-05-20T10:00:03;10.75;9.50;7.00
75960;PMS7003;64644;48.914;2.254;2023-05-20T10:02:32;9.25;9.00;7.50
75960;PMS7003;64644;48.914;2.254;2023-05-20T10:04:58;8.00;8.00;7.00
75960;PMS7003;64644;48.914;2.254;2023-05-20T10:20:47;5.75;5.25;4.50
75960;PMS7003;64644;48.914;2.254;2023-05-20T10:23:19;9.75;8.00;7.00
75960;PMS7003;64644;48.914;2.254;2023-05-20T10:25:49;8.25;8.25;6.25
75960;PMS7003;64644;48.914;2.254;2023-05-20T10:28:23;8.75;8.50;6.75
75960;PMS7003;64644;48.914;2.254;2023-05-20T10:30:53;8.75;7.75;6.00
75960;PMS7003;64644;48.914;2.254;2023-05-20T10:33:18;10.25;9.00;7.75
75960;PMS7003;64644;48.914;2.254;2023-05-20T10:35:49;8.50;8.50;7.00
75960;PMS7003;64644;48.914;2.254;2023-05-20T10:38:16;9.75;9.00;7.00
75960;PMS7003;64644;48.914;2.254;2023-05-20T10:40:42;7.00;6.50;6.00
75960;PMS7003;64644;48.914;2.254;2023-05-20T10:43:11;9.00;7.25;5.75
75960;PMS7003;64644;48.914;2.254;2023-05-20T10:45:54;8.75;8.75;7.00
75960;PMS7003;64644;48.914;2.254;2023-05-20T10:48:26;9.75;9.25;7.75
75960;PMS7003;64644;48.914;2.254;2023-05-20T10:50:56;9.50;9.50;7.00
75960;PMS7003;64644;48.914;2.254;2023-05-20T10:53:24;7.25;7.25;6.25
75960;PMS7003;64644;48.914;2.254;2023-05-20T10:55:51;8.50;8.25;7.00
75960;PMS7003;64644;48.914;2.254;2023-05-20T10:58:19;9.50;8.25;7.75
75960;PMS7003;64644;48.914;2.254;2023-05-20T11:00:46;10.75;9.00;7.00
75960;PMS7003;64644;48.914;2.254;2023-05-20T11:03:13;7.75;7.75;7.00
75960;PMS7003;64644;48.914;2.254;2023-05-20T11:05:40;8.50;7.75;6.00
75960;PMS7003;64644;48.914;2.254;2023-05-20T11:08:06;9.00;8.00;6.50
75960;PMS7003;64644;48.914;2.254;2023-05-20T11:10:33;9.50;9.50;8.00
75960;PMS7003;64644;48.914;2.254;2023-05-20T11:13:00;9.00;7.50;6.00
75960;PMS7003;64644;48.914;2.254;2023-05-20T11:15:26;7.75;7.75;5.50
75960;PMS7003;64644;48.914;2.254;2023-05-20T11:17:55;9.75;7.25;6.00
75960;PMS7003;64644;48.914;2.254;2023-05-20T11:20:26;7.00;7.00;5.75
75960;PMS7003;64644;48.914;2.254;2023-05-20T11:22:52;7.25;6.50;5.00
75960;PMS7003;64644;48.914;2.254;2023-05-20T11:25:18;7.25;7.25;6.00
75960;PMS7003;64644;48.914;2.254;2023-05-20T11:27:45;7.00;6.25;5.00
75960;PMS7003;64644;48.914;2.254;2023-05-20T11:30:12;8.00;7.00;6.00
75960;PMS7003;64644;48.914;2.254;2023-05-20T11:32:41;8.50;6.50;6.50
75960;PMS7003;64644;48.914;2.254;2023-05-20T11:35:18;8.50;8.00;5.00
75960;PMS7003;64644;48.914;2.254;2023-05-20T11:37:52;8.75;8.75;7.25
75960;PMS7003;64644;48.914;2.254;2023-05-20T11:40:22;6.75;6.75;6.00
75960;PMS7003;64644;48.914;2.254;2023-05-20T11:42:51;7.00;7.00;5.75
75960;PMS7003;64644;48.914;2.254;2023-05-20T11:45:20;6.75;6.75;6.00
75960;PMS7003;64644;48.914;2.254;2023-05-20T11:47:46;7.00;6.00;5.00
75960;PMS7003;64644;48.914;2.254;2023-05-20T11:50:18;8.00;6.75;5.75
75960;PMS7003;64644;48.914;2.254;2023-05-20T11:52:44;7.75;7.00;5.50
75960;PMS7003;64644;48.914;2.254;2023-05-20T11:55:15;8.00;7.00;6.00
75960;PMS7003;64644;48.914;2.254;2023-05-20T11:57:41;5.00;5.00;5.00
75960;PMS7003;64644;48.914;2.254;2023-05-20T12:00:06;8.00;8.00;7.00
75960;PMS7003;64644;48.914;2.254;2023-05-20T12:02:34;7.00;7.00;6.00
75960;PMS7003;64644;48.914;2.254;2023-05-20T12:05:00;6.75;6.75;5.00
75960;PMS7003;64644;48.914;2.254;2023-05-20T12:07:25;8.00;7.00;5.00
75960;PMS7003;64644;48.914;2.254;2023-05-20T12:09:50;7.50;7.50;6.25
75960;PMS7003;64644;48.914;2.254;2023-05-20T12:12:16;7.50;7.50;6.00
75960;PMS7003;64644;48.914;2.254;2023-05-20T12:14:41;6.00;6.00;5.00
75960;PMS7003;64644;48.914;2.254;2023-05-20T12:17:07;6.00;6.00;5.50
75960;PMS7003;64644;48.914;2.254;2023-05-20T12:19:32;8.00;8.00;6.25
75960;PMS7003;64644;48.914;2.254;2023-05-20T12:21:57;9.00;7.75;6.00
75960;PMS7003;64644;48.914;2.254;2023-05-20T12:24:22;8.25;7.50;6.50
75960;PMS7003;64644;48.914;2.254;2023-05-20T12:26:48;7.25;7.25;5.75
75960;PMS7003;64644;48.914;2.254;2023-05-20T12:29:13;7.00;7.00;5.00
75960;PMS7003;64644;48.914;2.254;2023-05-20T12:31:38;10.00;8.50;5.75
75960;PMS7003;64644;48.914;2.254;2023-05-20T12:34:04;6.50;6.50;5.75
75960;PMS7003;64644;48.914;2.254;2023-05-20T12:36:29;6.00;6.00;5.00
75960;PMS7003;64644;48.914;2.254;2023-05-20T12:38:55;8.00;8.00;6.75
75960;PMS7003;64644;48.914;2.254;2023-05-20T12:41:20;7.00;7.00;6.00
75960;PMS7003;64644;48.914;2.254;2023-05-20T12:43:46;7.00;6.00;5.00
75960;PMS7003;64644;48.914;2.254;2023-05-20T12:46:11;6.75;6.75;6.00
75960;PMS7003;64644;48.914;2.254;2023-05-20T12:48:37;7.25;5.50;4.25
75960;PMS7003;64644;48.914;2.254;2023-05-20T12:51:02;7.00;7.00;5.00
75960;PMS7003;64644;48.914;2.254;2023-05-20T12:53:28;9.00;7.00;5.75
75960;PMS7003;64644;48.914;2.254;2023-05-20T12:55:53;9.00;7.25;7.00
75960;PMS7003;64644;48.914;2.254;2023-05-20T12:58:18;8.00;8.00;7.00
75960;PMS7003;64644;48.914;2.254;2023-05-20T13:00:44;7.25;6.25;6.00
75960;PMS7003;64644;48.914;2.254;2023-05-20T13:03:09;6.00;6.00;6.00
75960;PMS7003;64644;48.914;2.254;2023-05-20T13:05:35;7.75;7.75;7.00
75960;PMS7003;64644;48.914;2.254;2023-05-20T13:08:00;10.25;7.75;6.75
75960;PMS7003;64644;48.914;2.254;2023-05-20T13:10:25;10.00;10.00;7.00
75960;PMS7003;64644;48.914;2.254;2023-05-20T13:12:51;8.75;8.00;6.00
75960;PMS7003;64644;48.914;2.254;2023-05-20T13:15:17;9.75;8.25;7.00
75960;PMS7003;64644;48.914;2.254;2023-05-20T13:17:42;7.50;7.50;7.00
75960;PMS7003;64644;48.914;2.254;2023-05-20T13:20:08;7.50;7.50;6.50
75960;PMS7003;64644;48.914;2.254;2023-05-20T13:22:35;6.50;6.50;5.75
75960;PMS7003;64644;48.914;2.254;2023-05-20T13:25:00;8.25;8.25;6.75
75960;PMS7003;64644;48.914;2.254;2023-05-20T13:27:25;8.00;8.00;7.00
75960;PMS7003;64644;48.914;2.254;2023-05-20T13:29:51;8.00;8.00;7.50
75960;PMS7003;64644;48.914;2.254;2023-05-20T13:32:16;8.00;8.00;7.00
75960;PMS7003;64644;48.914;2.254;2023-05-20T13:34:42;5.50;5.50;4.00
75960;PMS7003;64644;48.914;2.254;2023-05-20T13:37:07;9.25;7.50;7.00
75960;PMS7003;64644;48.914;2.254;2023-05-20T13:39:32;10.00;8.00;7.00
75960;PMS7003;64644;48.914;2.254;2023-05-20T13:41:58;9.00;7.75;6.75
75960;PMS7003;64644;48.914;2.254;2023-05-20T13:44:23;7.00;7.00;6.00
75960;PMS7003;64644;48.914;2.254;2023-05-20T13:46:48;9.75;9.75;7.75
75960;PMS7003;64644;48.914;2.254;2023-05-20T13:49:14;7.50;7.50;6.00
75960;PMS7003;64644;48.914;2.254;2023-05-20T13:51:39;9.25;8.00;6.25
75960;PMS7003;64644;48.914;2.254;2023-05-20T13:54:05;9.25;7.25;6.50
75960;PMS7003;64644;48.914;2.254;2023-05-20T13:56:30;8.75;8.75;7.50
75960;PMS7003;64644;48.914;2.254;2023-05-20T13:58:56;7.00;7.00;6.00
75960;PMS7003;64644;48.914;2.254;2023-05-20T14:01:21;11.50;8.25;7.50
75960;PMS7003;64644;48.914;2.254;2023-05-20T14:03:47;8.00;8.00;6.00
75960;PMS7003;64644;48.914;2.254;2023-05-20T14:06:12;9.25;8.00;7.00
75960;PMS7003;64644;48.914;2.254;2023-05-20T14:08:39;9.25;9.25;7.50